createdAt,value
2018-11-06T00:01:13.041Z,14.07
2018-11-06T00:03:49.124Z,13.60
2018-11-06T00:06:23.880Z,10.27
2018-11-06T00:08:58.533Z,10.67
2018-11-06T00:11:33.241Z,10.57
2018-11-06T00:14:07.872Z,17.13
2018-11-06T00:16:42.535Z,10.93
2018-11-06T00:19:17.347Z,12.13
2018-11-06T00:21:52.210Z,15.83
2018-11-06T00:24:26.995Z,14.87
2018-11-06T06:33:55.938Z,16.53
2018-11-06T06:36:30.878Z,12.57
2018-11-06T06:39:07.976Z,18.27
2018-11-06T06:41:42.931Z,14.13
2018-11-06T06:44:17.616Z,13.67
2018-11-06T06:46:52.347Z,14.47
2018-11-06T06:49:27.264Z,13.33
2018-11-06T06:52:02.086Z,19.07
2018-11-06T06:54:37.074Z,12.37
2018-11-06T06:57:11.846Z,12.53
2018-11-06T06:59:46.649Z,16.70
2018-11-06T07:02:21.365Z,14.30
2018-11-06T07:04:56.334Z,11.63
2018-11-06T07:07:31.084Z,13.70
2018-11-06T07:10:07.866Z,11.27
2018-11-06T07:12:43.636Z,15.17
2018-11-06T07:15:20.581Z,12.40
2018-11-06T07:17:55.348Z,12.77
2018-11-06T07:20:30.260Z,12.33
2018-11-06T07:23:05.313Z,14.20
2018-11-06T07:25:39.998Z,10.90
2018-11-06T07:28:14.772Z,12.70
2018-11-06T07:30:49.581Z,13.87
2018-11-06T07:33:24.410Z,15.73
2018-11-06T07:35:59.277Z,14.30
2018-11-06T07:38:33.997Z,12.97
2018-11-06T07:41:08.915Z,14.97
2018-11-06T07:43:43.676Z,15.27
2018-11-06T07:46:18.435Z,17.20
2018-11-06T07:48:53.321Z,15.03
2018-11-06T07:51:28.195Z,11.47
2018-11-06T07:54:03.001Z,12.40
2018-11-06T07:56:37.938Z,13.73
2018-11-06T07:59:12.731Z,14.17
2018-11-06T08:01:47.670Z,15.33
2018-11-06T08:04:22.624Z,13.20
2018-11-06T08:06:57.456Z,12.73
2018-11-06T08:09:32.285Z,14.43
2018-11-06T08:12:07.220Z,10.67
2018-11-06T08:14:41.812Z,12.93
2018-11-06T08:17:16.691Z,11.07
2018-11-06T08:19:51.509Z,10.43
2018-11-06T08:22:26.279Z,10.07
2018-11-06T08:25:01.030Z,11.13
2018-11-06T08:27:35.965Z,8.47
2018-11-06T08:30:11.490Z,13.70
2018-11-06T08:32:46.712Z,14.27
2018-11-06T08:35:21.970Z,14.73
2018-11-06T08:37:56.845Z,10.27
2018-11-06T08:40:31.810Z,10.27
2018-11-06T08:43:06.697Z,14.00
2018-11-06T08:45:41.482Z,12.77
2018-11-06T08:48:16.398Z,15.67
2018-11-06T08:50:50.907Z,17.90
2018-11-06T08:53:25.863Z,13.57
2018-11-06T08:56:00.670Z,14.33
2018-11-06T08:58:35.528Z,12.93
2018-11-06T09:01:10.234Z,15.63
2018-11-06T09:03:45.019Z,14.93
2018-11-06T09:06:26.406Z,14.23
2018-11-06T09:09:01.232Z,11.83
2018-11-06T09:11:35.875Z,20.63
2018-11-06T09:14:10.711Z,13.53
2018-11-06T09:16:45.557Z,14.77
2018-11-06T09:19:20.323Z,13.53
2018-11-06T09:21:54.933Z,19.67
2018-11-06T09:24:29.755Z,13.97
2018-11-06T09:27:04.488Z,17.97
2018-11-06T09:29:39.384Z,17.47
2018-11-06T09:32:14.308Z,14.10
2018-11-06T09:34:49.048Z,13.80
2018-11-06T09:37:23.904Z,14.90
2018-11-06T09:39:58.656Z,15.90
2018-11-06T09:42:33.629Z,16.37
2018-11-06T09:45:09.172Z,19.50
2018-11-06T09:47:43.810Z,15.33
2018-11-06T09:50:19.494Z,19.20
2018-11-06T09:52:54.487Z,12.37
2018-11-06T09:55:29.363Z,16.50
2018-11-06T09:58:04.251Z,15.67
2018-11-06T10:00:39.118Z,10.87
2018-11-06T10:03:13.951Z,15.93
2018-11-06T10:05:48.802Z,16.80
2018-11-06T10:08:23.586Z,12.13
2018-11-06T10:10:58.422Z,17.57
2018-11-06T10:13:33.335Z,15.77
2018-11-06T10:16:08.283Z,13.60
2018-11-06T10:18:43.093Z,18.70
2018-11-06T10:21:17.874Z,14.30
2018-11-06T10:23:52.657Z,12.97
2018-11-06T10:26:27.619Z,22.47
2018-11-06T10:29:02.331Z,12.13
2018-11-06T10:31:37.464Z,17.77
2018-11-06T10:34:12.793Z,14.57
2018-11-06T10:36:47.489Z,13.33
2018-11-06T10:39:22.987Z,15.53
2018-11-06T10:41:57.831Z,17.33
2018-11-06T10:44:32.810Z,11.57
2018-11-06T10:47:07.687Z,10.03
2018-11-06T10:49:42.504Z,11.87
2018-11-06T10:52:17.343Z,16.20
2018-11-06T10:54:52.667Z,18.23
2018-11-06T10:57:27.530Z,18.77
2018-11-06T11:00:02.234Z,14.67
2018-11-06T11:02:42.526Z,18.83
2018-11-06T11:05:17.602Z,15.73
2018-11-06T11:07:52.530Z,15.07
2018-11-06T11:10:27.305Z,19.43
2018-11-06T11:13:02.018Z,20.47
2018-11-06T11:15:36.934Z,22.20
2018-11-06T11:18:11.808Z,25.47
2018-11-06T11:20:46.618Z,24.27
2018-11-06T11:23:21.597Z,19.00
2018-11-06T11:25:57.324Z,18.13
2018-11-06T11:28:32.179Z,24.90
2018-11-06T11:31:06.962Z,15.27
2018-11-06T11:33:41.710Z,23.67
2018-11-06T11:36:16.512Z,20.87
2018-11-06T11:38:51.465Z,20.50
2018-11-06T11:41:26.461Z,18.47
2018-11-06T11:44:01.370Z,18.70
2018-11-06T11:46:36.354Z,18.90
2018-11-06T11:49:11.117Z,20.03
2018-11-06T11:51:45.831Z,18.67
2018-11-06T11:54:20.643Z,20.90
2018-11-06T11:56:55.551Z,16.90
2018-11-06T11:59:30.485Z,20.67
2018-11-06T12:02:06.200Z,17.37
2018-11-06T12:04:41.061Z,22.53
2018-11-06T12:07:15.922Z,16.70
2018-11-06T12:09:50.743Z,17.10
2018-11-06T12:12:26.371Z,14.37
2018-11-06T12:15:01.195Z,14.57
2018-11-06T12:17:35.997Z,18.50
2018-11-06T12:20:12.291Z,14.90
2018-11-06T12:22:47.855Z,14.30
2018-11-06T12:25:23.132Z,14.93
2018-11-06T12:27:57.904Z,13.10
2018-11-06T12:30:32.844Z,10.97
2018-11-06T12:33:07.566Z,17.00
2018-11-06T12:35:42.433Z,17.23
2018-11-06T12:38:17.227Z,12.53
2018-11-06T12:40:52.148Z,14.90
2018-11-06T12:43:27.209Z,9.57
2018-11-06T12:46:02.037Z,9.27
2018-11-06T12:48:36.929Z,15.20
2018-11-06T12:51:11.647Z,16.20
2018-11-06T12:53:46.547Z,14.23
2018-11-06T12:56:21.457Z,13.53
2018-11-06T12:58:56.510Z,11.77
2018-11-06T13:01:31.410Z,11.07
2018-11-06T13:04:06.290Z,19.93
2018-11-06T13:06:41.173Z,11.37
2018-11-06T13:09:16.032Z,8.77
2018-11-06T13:11:50.847Z,11.37
2018-11-06T13:14:25.600Z,10.00
2018-11-06T13:17:00.471Z,10.67
2018-11-06T13:19:35.297Z,8.47
2018-11-06T13:22:10.085Z,8.83
2018-11-06T13:24:45.085Z,9.53
2018-11-06T13:27:19.951Z,10.60
2018-11-06T13:29:54.808Z,7.83
2018-11-06T13:32:29.728Z,9.33
2018-11-06T13:35:04.600Z,9.47
2018-11-06T13:37:39.732Z,13.47
2018-11-06T13:40:15.709Z,8.17
2018-11-06T13:42:50.584Z,10.87
2018-11-06T13:45:26.184Z,8.83
2018-11-06T13:48:00.923Z,9.37
2018-11-06T13:50:35.776Z,11.83
2018-11-06T13:53:10.413Z,13.43
2018-11-06T13:55:45.378Z,13.13
2018-11-06T13:58:20.170Z,15.87
2018-11-06T14:00:54.885Z,14.90
2018-11-06T14:03:29.654Z,9.30
2018-11-06T14:06:04.746Z,10.33
2018-11-06T14:08:39.506Z,15.67
2018-11-06T14:11:14.244Z,10.77
2018-11-06T14:13:49.055Z,14.13
2018-11-06T14:16:23.935Z,12.97
2018-11-06T14:18:58.750Z,9.97
2018-11-06T14:21:34.040Z,10.87
2018-11-06T14:24:09.029Z,8.03
2018-11-06T14:26:43.794Z,8.47
2018-11-06T14:29:18.688Z,11.33
2018-11-06T14:31:53.785Z,8.63
2018-11-06T14:34:28.840Z,11.63
2018-11-06T14:37:03.578Z,9.57
2018-11-06T14:39:38.512Z,11.43
2018-11-06T14:42:13.476Z,15.10
2018-11-06T14:44:48.252Z,7.50
2018-11-06T14:47:22.916Z,9.40
2018-11-06T14:49:57.631Z,10.53
2018-11-06T14:52:32.695Z,7.37
2018-11-06T14:55:09.276Z,8.10
2018-11-06T14:57:45.062Z,9.47
2018-11-06T15:00:21.186Z,8.53
2018-11-06T15:02:56.151Z,9.23
2018-11-06T15:05:31.025Z,13.33
2018-11-06T15:08:06.309Z,10.07
2018-11-06T15:10:41.232Z,11.77
2018-11-06T15:13:15.960Z,6.83
2018-11-06T15:15:50.932Z,9.27
2018-11-06T15:18:25.831Z,10.70
2018-11-06T15:21:00.642Z,14.20
2018-11-06T15:23:35.336Z,9.70
2018-11-06T15:26:10.346Z,9.50
2018-11-06T15:28:45.197Z,12.00
2018-11-06T15:31:20.085Z,8.63
2018-11-06T15:33:54.820Z,12.07
2018-11-06T15:36:29.688Z,9.60
2018-11-06T15:39:05.963Z,9.57
2018-11-06T15:41:41.648Z,12.63
2018-11-06T15:44:16.379Z,10.97
2018-11-06T15:46:51.193Z,11.87
2018-11-06T15:49:25.909Z,12.13
2018-11-06T15:52:00.669Z,12.10
2018-11-06T15:54:35.456Z,12.60
2018-11-06T15:57:10.131Z,13.63
2018-11-06T15:59:45.721Z,14.13
2018-11-06T16:02:20.966Z,17.90
2018-11-06T16:04:55.885Z,13.40
2018-11-06T16:07:30.692Z,14.57
2018-11-06T16:10:08.551Z,12.87
2018-11-06T16:12:44.253Z,13.30
2018-11-06T16:15:19.026Z,14.07
2018-11-06T16:17:53.977Z,12.60
2018-11-06T16:20:28.588Z,11.47
2018-11-06T16:23:03.462Z,16.47
2018-11-06T16:25:38.264Z,13.00
2018-11-06T16:28:13.115Z,13.83
2018-11-06T16:30:48.098Z,14.73
2018-11-06T16:33:23.022Z,16.13
2018-11-06T16:35:57.804Z,11.10
2018-11-06T16:38:32.682Z,12.53
2018-11-06T16:41:07.760Z,10.17
2018-11-06T16:43:42.640Z,7.80
2018-11-06T16:46:17.329Z,7.33
2018-11-06T16:48:52.262Z,8.67
2018-11-06T16:51:27.108Z,7.07
2018-11-06T16:54:01.944Z,9.47
2018-11-06T16:56:36.784Z,5.90
2018-11-06T16:59:11.721Z,6.70
2018-11-06T17:01:46.578Z,7.17
2018-11-06T17:04:21.388Z,7.33
2018-11-06T17:06:56.242Z,8.20
2018-11-06T17:09:30.912Z,8.10
2018-11-06T17:12:05.916Z,12.50
2018-11-06T17:14:40.749Z,6.03
2018-11-06T17:17:15.593Z,8.27
2018-11-06T17:19:50.448Z,7.43
2018-11-06T17:22:25.288Z,6.07
2018-11-06T17:25:00.226Z,10.13
2018-11-06T17:27:35.073Z,4.27
2018-11-06T17:30:11.929Z,4.60
2018-11-06T17:32:47.694Z,5.67
2018-11-06T17:35:22.604Z,4.83
2018-11-06T17:37:57.304Z,3.57
2018-11-06T17:40:32.084Z,3.90
2018-11-06T17:43:06.900Z,3.17
2018-11-06T17:45:41.659Z,4.23
2018-11-06T17:48:16.520Z,5.30
2018-11-06T17:50:52.081Z,3.30
2018-11-06T17:53:27.211Z,5.40
2018-11-06T17:56:02.152Z,3.60
2018-11-06T17:58:37.359Z,5.90
2018-11-06T18:01:12.215Z,2.37
2018-11-06T18:03:47.175Z,6.17
2018-11-06T18:06:21.944Z,4.60
2018-11-06T18:08:56.848Z,3.00
2018-11-06T18:11:31.693Z,4.07
2018-11-06T18:14:06.765Z,4.57
2018-11-06T18:16:41.998Z,6.37
2018-11-06T18:19:16.839Z,3.87
2018-11-06T18:21:51.938Z,4.23
2018-11-06T18:24:26.766Z,4.77
2018-11-06T18:27:02.143Z,4.20
2018-11-06T18:29:36.998Z,2.83
2018-11-06T18:32:11.994Z,4.20
2018-11-06T18:34:46.856Z,2.90
2018-11-06T18:37:21.637Z,3.90
2018-11-06T18:39:56.625Z,4.37
2018-11-06T18:42:31.479Z,3.67
2018-11-06T18:45:06.619Z,4.63
2018-11-06T18:47:41.351Z,3.33
2018-11-06T18:50:17.842Z,3.60
2018-11-06T18:52:52.533Z,3.27
2018-11-06T18:55:27.399Z,3.17
2018-11-06T18:58:02.215Z,3.07
2018-11-06T19:00:37.127Z,3.70
2018-11-06T19:03:12.086Z,3.10
2018-11-06T19:05:46.947Z,3.47
2018-11-06T19:08:22.149Z,7.23
2018-11-06T19:10:57.060Z,4.90
2018-11-06T19:13:32.013Z,3.63
2018-11-06T19:16:06.818Z,3.07
2018-11-06T19:18:41.570Z,6.77
2018-11-06T19:21:17.852Z,7.33
2018-11-06T19:23:52.917Z,5.17
2018-11-06T19:26:27.663Z,4.87
2018-11-06T19:29:02.606Z,3.97
2018-11-06T19:31:37.410Z,2.40
2018-11-06T19:34:12.509Z,2.20
2018-11-06T19:36:47.255Z,3.50
2018-11-06T19:39:22.197Z,4.93
2018-11-06T19:41:57.216Z,3.83
2018-11-06T19:44:32.121Z,4.37
2018-11-06T19:47:07.007Z,2.67
2018-11-06T19:49:41.889Z,4.83
2018-11-06T19:52:16.666Z,3.77
2018-11-06T19:54:51.630Z,2.73
2018-11-06T19:57:26.519Z,4.60
2018-11-06T20:00:01.519Z,4.60
2018-11-06T20:02:36.327Z,4.67
2018-11-06T20:05:11.146Z,3.90
2018-11-06T20:07:46.655Z,3.50
2018-11-06T20:10:22.720Z,1.77
2018-11-06T20:12:57.467Z,2.07
2018-11-06T20:15:32.410Z,1.57
2018-11-06T20:18:07.298Z,1.20
2018-11-06T20:20:42.063Z,1.30
2018-11-06T20:23:16.804Z,1.87
2018-11-06T20:25:51.597Z,2.57
2018-11-06T20:28:27.837Z,2.13
2018-11-06T20:31:09.251Z,5.30
2018-11-06T20:33:44.712Z,8.63
2018-11-06T20:36:19.591Z,5.50
2018-11-06T20:38:54.550Z,3.30
2018-11-06T20:41:29.449Z,1.43
2018-11-06T20:44:04.993Z,1.50
2018-11-06T20:46:39.965Z,2.93
2018-11-06T20:49:14.716Z,5.13
2018-11-06T20:51:49.431Z,3.87
2018-11-06T20:54:24.255Z,3.03
2018-11-06T20:56:58.854Z,2.63
2018-11-06T20:59:33.479Z,6.20
2018-11-06T21:02:08.339Z,4.87
2018-11-06T21:04:43.029Z,2.63
2018-11-06T21:07:17.900Z,2.33
2018-11-06T21:09:52.933Z,2.37
2018-11-06T21:12:27.770Z,2.33
2018-11-06T21:15:02.513Z,3.17
2018-11-06T21:17:38.271Z,2.70
2018-11-06T21:20:14.759Z,3.40
2018-11-06T21:22:49.664Z,2.90
2018-11-06T21:25:24.522Z,2.00
2018-11-06T21:27:59.657Z,3.93
2018-11-06T21:30:34.542Z,2.30
2018-11-06T21:33:09.398Z,2.67
2018-11-06T21:35:44.273Z,6.67
2018-11-06T21:38:19.101Z,3.37
2018-11-06T21:40:54.128Z,1.53
2018-11-06T21:43:28.994Z,2.57
2018-11-06T21:46:03.994Z,5.40
2018-11-06T21:48:38.631Z,3.20
2018-11-06T21:51:14.287Z,2.80
2018-11-06T21:53:49.312Z,1.50
2018-11-06T21:56:24.899Z,2.87
2018-11-06T21:58:59.704Z,1.50
2018-11-06T22:01:34.721Z,4.47
2018-11-06T22:04:09.868Z,4.67
2018-11-06T22:06:44.850Z,1.87
2018-11-06T22:09:19.615Z,1.70
2018-11-06T22:11:54.570Z,5.30
2018-11-06T22:14:29.609Z,0.93
2018-11-06T22:17:04.354Z,3.23
2018-11-06T22:19:39.363Z,1.53
2018-11-06T22:22:14.781Z,3.10
2018-11-06T22:24:49.788Z,2.47
2018-11-06T22:27:24.626Z,2.60
2018-11-06T22:29:59.632Z,2.20
2018-11-06T22:32:34.517Z,1.23
2018-11-06T22:35:10.663Z,2.03
2018-11-06T22:37:45.439Z,3.53
2018-11-06T22:40:20.538Z,3.10
2018-11-06T22:42:56.413Z,1.00
2018-11-06T22:45:37.489Z,2.30
2018-11-06T22:48:12.612Z,1.70
2018-11-06T22:50:47.444Z,1.90
2018-11-06T22:53:23.088Z,1.80
2018-11-06T22:55:58.579Z,2.20
2018-11-06T22:58:33.500Z,1.20
2018-11-06T23:01:17.577Z,1.50
2018-11-06T23:03:53.224Z,0.73
2018-11-06T23:06:28.181Z,4.20
2018-11-06T23:09:03.737Z,2.83
2018-11-06T23:11:38.671Z,1.27
2018-11-06T23:14:13.686Z,1.73
2018-11-06T23:17:14.674Z,1.23
2018-11-06T23:19:49.598Z,1.50
2018-11-06T23:22:24.460Z,1.33
2018-11-06T23:25:04.118Z,1.40
2018-11-06T23:27:39.137Z,1.20
2018-11-06T23:30:14.893Z,1.07
2018-11-06T23:32:49.769Z,1.50
2018-11-06T23:35:24.802Z,1.87
2018-11-06T23:37:59.689Z,1.40
2018-11-06T23:40:34.622Z,1.47
2018-11-06T23:43:09.602Z,1.57
2018-11-06T23:45:44.226Z,2.50
2018-11-06T23:48:19.151Z,3.40
2018-11-06T23:50:54.002Z,2.93
2018-11-06T23:53:29.237Z,1.77
2018-11-06T23:56:04.193Z,1.33
2018-11-06T23:58:38.947Z,2.00
